sensor_id;sensor_type;location;lat;lon;timestamp;temperature;humidity
1812;DHT22;904;47.814;11.134;2023-04-29T00:02:18;11.90;99.90
1812;DHT22;904;47.814;11.134;2023-04-29T00:04:45;11.90;99.90
1812;DHT22;904;47.814;11.134;2023-04-29T00:07:13;11.90;99.90
1812;DHT22;904;47.814;11.134;2023-04-29T00:09:41;12.00;99.90
1812;DHT22;904;47.814;11.134;2023-04-29T00:12:10;12.00;99.90
1812;DHT22;904;47.814;11.134;2023-04-29T00:14:37;12.00;99.90
1812;DHT22;904;47.814;11.134;2023-04-29T00:17:04;11.90;99.90
1812;DHT22;904;47.814;11.134;2023-04-29T00:19:32;11.90;99.90
1812;DHT22;904;47.814;11.134;2023-04-29T00:22:00;12.00;99.90
1812;DHT22;904;47.814;11.134;2023-04-29T00:24:27;12.00;99.90
1812;DHT22;904;47.814;11.134;2023-04-29T00:26:54;12.00;99.90
1812;DHT22;904;47.814;11.134;2023-04-29T00:29:24;12.00;99.90
1812;DHT22;904;47.814;11.134;2023-04-29T00:31:52;12.00;99.90
1812;DHT22;904;47.814;11.134;2023-04-29T00:34:20;12.00;99.90
1812;DHT22;904;47.814;11.134;2023-04-29T00:36:47;12.00;99.90
1812;DHT22;904;47.814;11.134;2023-04-29T00:39:15;12.00;99.90
1812;DHT22;904;47.814;11.134;2023-04-29T00:41:42;12.00;99.90
1812;DHT22;904;47.814;11.134;2023-04-29T00:44:10;12.00;99.90
1812;DHT22;904;47.814;11.134;2023-04-29T00:46:40;12.00;99.90
1812;DHT22;904;47.814;11.134;2023-04-29T00:49:08;12.00;99.90
1812;DHT22;904;47.814;11.134;2023-04-29T00:51:36;12.00;99.90
1812;DHT22;904;47.814;11.134;2023-04-29T00:54:04;12.00;99.90
1812;DHT22;904;47.814;11.134;2023-04-29T00:56:34;12.10;99.90
1812;DHT22;904;47.814;11.134;2023-04-29T00:59:02;12.00;99.90
1812;DHT22;904;47.814;11.134;2023-04-29T01:01:31;12.00;99.90
1812;DHT22;904;47.814;11.134;2023-04-29T01:04:00;12.00;99.90
1812;DHT22;904;47.814;11.134;2023-04-29T01:06:35;12.00;99.90
1812;DHT22;904;47.814;11.134;2023-04-29T01:09:17;12.10;99.90
1812;DHT22;904;47.814;11.134;2023-04-29T01:11:52;12.10;99.90
1812;DHT22;904;47.814;11.134;2023-04-29T01:14:22;12.10;99.90
1812;DHT22;904;47.814;11.134;2023-04-29T01:16:51;12.00;99.90
1812;DHT22;904;47.814;11.134;2023-04-29T01:19:43;12.00;99.90
1812;DHT22;904;47.814;11.134;2023-04-29T01:22:13;12.00;99.90
1812;DHT22;904;47.814;11.134;2023-04-29T01:24:44;11.90;99.90
1812;DHT22;904;47.814;11.134;2023-04-29T01:27:20;11.90;99.90
1812;DHT22;904;47.814;11.134;2023-04-29T01:29:55;12.00;99.90
1812;DHT22;904;47.814;11.134;2023-04-29T01:32:31;12.00;99.90
1812;DHT22;904;47.814;11.134;2023-04-29T01:35:12;11.90;99.90
1812;DHT22;904;47.814;11.134;2023-04-29T01:37:51;11.90;99.90
1812;DHT22;904;47.814;11.134;2023-04-29T01:40:28;11.90;99.90
1812;DHT22;904;47.814;11.134;2023-04-29T01:43:02;11.90;99.90
1812;DHT22;904;47.814;11.134;2023-04-29T01:45:33;11.90;99.90
1812;DHT22;904;47.814;11.134;2023-04-29T01:48:02;11.90;99.90
1812;DHT22;904;47.814;11.134;2023-04-29T01:50:30;11.90;99.90
1812;DHT22;904;47.814;11.134;2023-04-29T01:52:57;11.90;99.90
1812;DHT22;904;47.814;11.134;2023-04-29T01:55:26;11.90;99.90
1812;DHT22;904;47.814;11.134;2023-04-29T01:57:54;11.90;99.90
1812;DHT22;904;47.814;11.134;2023-04-29T02:00:22;11.90;99.90
1812;DHT22;904;47.814;11.134;2023-04-29T02:02:49;11.90;99.90
1812;DHT22;904;47.814;11.134;2023-04-29T02:05:17;11.90;99.90
1812;DHT22;904;47.814;11.134;2023-04-29T02:07:44;11.80;99.90
1812;DHT22;904;47.814;11.134;2023-04-29T02:10:12;11.80;99.90
1812;DHT22;904;47.814;11.134;2023-04-29T02:12:41;11.80;99.90
1812;DHT22;904;47.814;11.134;2023-04-29T02:15:09;11.80;99.90
1812;DHT22;904;47.814;11.134;2023-04-29T02:17:37;11.80;99.90
1812;DHT22;904;47.814;11.134;2023-04-29T02:20:05;11.80;99.90
1812;DHT22;904;47.814;11.134;2023-04-29T02:22:35;11.80;99.90
1812;DHT22;904;47.814;11.134;2023-04-29T02:25:03;11.80;99.90
1812;DHT22;904;47.814;11.134;2023-04-29T02:27:31;11.80;99.90
1812;DHT22;904;47.814;11.134;2023-04-29T02:30:00;11.80;99.90
1812;DHT22;904;47.814;11.134;2023-04-29T02:32:28;11.80;99.90
1812;DHT22;904;47.814;11.134;2023-04-29T02:34:55;11.80;99.90
1812;DHT22;904;47.814;11.134;2023-04-29T02:37:23;11.80;99.90
1812;DHT22;904;47.814;11.134;2023-04-29T02:39:50;11.80;99.90
1812;DHT22;904;47.814;11.134;2023-04-29T02:42:17;11.90;99.90
1812;DHT22;904;47.814;11.134;2023-04-29T02:44:45;11.90;99.90
1812;DHT22;904;47.814;11.134;2023-04-29T02:47:14;11.80;99.90
1812;DHT22;904;47.814;11.134;2023-04-29T02:49:42;11.80;99.90
1812;DHT22;904;47.814;11.134;2023-04-29T02:52:09;11.80;99.90
1812;DHT22;904;47.814;11.134;2023-04-29T02:54:37;11.80;99.90
1812;DHT22;904;47.814;11.134;2023-04-29T02:57:05;11.80;99.90
1812;DHT22;904;47.814;11.134;2023-04-29T02:59:32;11.80;99.90
1812;DHT22;904;47.814;11.134;2023-04-29T03:02:00;11.80;99.90
1812;DHT22;904;47.814;11.134;2023-04-29T03:04:30;11.80;99.90
1812;DHT22;904;47.814;11.134;2023-04-29T03:06:57;11.80;99.90
1812;DHT22;904;47.814;11.134;2023-04-29T03:09:25;11.90;99.90
1812;DHT22;904;47.814;11.134;2023-04-29T03:11:53;11.90;99.90
1812;DHT22;904;47.814;11.134;2023-04-29T03:14:20;11.90;99.90
1812;DHT22;904;47.814;11.134;2023-04-29T03:16:48;11.90;99.90
1812;DHT22;904;47.814;11.134;2023-04-29T03:19:15;11.90;99.90
1812;DHT22;904;47.814;11.134;2023-04-29T03:21:44;11.80;99.90
1812;DHT22;904;47.814;11.134;2023-04-29T03:24:11;11.80;99.90
1812;DHT22;904;47.814;11.134;2023-04-29T03:26:39;11.70;99.90
1812;DHT22;904;47.814;11.134;2023-04-29T03:29:07;11.70;99.90
1812;DHT22;904;47.814;11.134;2023-04-29T03:31:34;11.70;99.90
1812;DHT22;904;47.814;11.134;2023-04-29T03:34:02;11.70;99.90
1812;DHT22;904;47.814;11.134;2023-04-29T03:36:30;11.60;99.90
1812;DHT22;904;47.814;11.134;2023-04-29T03:38:59;11.70;99.90
1812;DHT22;904;47.814;11.134;2023-04-29T03:41:26;11.70;99.90
1812;DHT22;904;47.814;11.134;2023-04-29T03:43:53;11.70;99.90
1812;DHT22;904;47.814;11.134;2023-04-29T03:46:25;11.70;99.90
1812;DHT22;904;47.814;11.134;2023-04-29T03:48:53;11.70;99.90
1812;DHT22;904;47.814;11.134;2023-04-29T03:51:21;11.70;99.90
1812;DHT22;904;47.814;11.134;2023-04-29T03:53:48;11.70;99.90
1812;DHT22;904;47.814;11.134;2023-04-29T03:56:18;11.70;99.90
1812;DHT22;904;47.814;11.134;2023-04-29T03:58:46;11.70;99.90
1812;DHT22;904;47.814;11.134;2023-04-29T04:01:14;11.80;99.90
1812;DHT22;904;47.814;11.134;2023-04-29T04:03:42;11.80;99.90
1812;DHT22;904;47.814;11.134;2023-04-29T04:06:09;11.80;99.90
1812;DHT22;904;47.814;11.134;2023-04-29T04:08:36;11.90;99.90
1812;DHT22;904;47.814;11.134;2023-04-29T04:11:06;11.90;99.90
1812;DHT22;904;47.814;11.134;2023-04-29T04:13:39;11.90;99.90
1812;DHT22;904;47.814;11.134;2023-04-29T04:16:11;11.90;99.90
1812;DHT22;904;47.814;11.134;2023-04-29T04:18:38;11.90;99.90
1812;DHT22;904;47.814;11.134;2023-04-29T04:21:06;11.80;99.90
1812;DHT22;904;47.814;11.134;2023-04-29T04:23:34;11.80;99.90
1812;DHT22;904;47.814;11.134;2023-04-29T04:26:01;11.80;99.90
1812;DHT22;904;47.814;11.134;2023-04-29T04:28:29;11.80;99.90
1812;DHT22;904;47.814;11.134;2023-04-29T04:30:58;11.90;99.90
1812;DHT22;904;47.814;11.134;2023-04-29T04:33:25;11.90;99.90
1812;DHT22;904;47.814;11.134;2023-04-29T04:35:53;11.80;99.90
1812;DHT22;904;47.814;11.134;2023-04-29T04:38:20;11.90;99.90
1812;DHT22;904;47.814;11.134;2023-04-29T04:40:50;11.90;99.90
1812;DHT22;904;47.814;11.134;2023-04-29T04:43:18;11.90;99.90
1812;DHT22;904;47.814;11.134;2023-04-29T04:45:46;11.90;99.90
1812;DHT22;904;47.814;11.134;2023-04-29T04:48:15;12.00;99.90
1812;DHT22;904;47.814;11.134;2023-04-29T04:50:42;12.00;99.90
1812;DHT22;904;47.814;11.134;2023-04-29T04:53:10;11.90;99.90
1812;DHT22;904;47.814;11.134;2023-04-29T04:55:37;11.90;99.90
1812;DHT22;904;47.814;11.134;2023-04-29T04:58:04;12.00;99.90
1812;DHT22;904;47.814;11.134;2023-04-29T05:00:32;12.00;99.90
1812;DHT22;904;47.814;11.134;2023-04-29T05:02:59;12.10;99.90
1812;DHT22;904;47.814;11.134;2023-04-29T05:05:28;12.20;99.90
1812;DHT22;904;47.814;11.134;2023-04-29T05:07:55;12.20;99.90
1812;DHT22;904;47.814;11.134;2023-04-29T05:10:23;12.30;99.90
1812;DHT22;904;47.814;11.134;2023-04-29T05:12:51;12.30;99.90
1812;DHT22;904;47.814;11.134;2023-04-29T05:15:18;12.40;99.90
1812;DHT22;904;47.814;11.134;2023-04-29T05:17:46;12.50;99.90
1812;DHT22;904;47.814;11.134;2023-04-29T05:20:14;12.60;99.90
1812;DHT22;904;47.814;11.134;2023-04-29T05:22:43;12.70;99.90
1812;DHT22;904;47.814;11.134;2023-04-29T05:25:11;12.70;99.90
1812;DHT22;904;47.814;11.134;2023-04-29T05:27:38;12.70;99.90
1812;DHT22;904;47.814;11.134;2023-04-29T05:30:06;12.80;99.90
1812;DHT22;904;47.814;11.134;2023-04-29T05:32:33;12.90;99.90
1812;DHT22;904;47.814;11.134;2023-04-29T05:35:01;12.90;99.90
1812;DHT22;904;47.814;11.134;2023-04-29T05:37:28;13.00;99.90
1812;DHT22;904;47.814;11.134;2023-04-29T05:39:58;13.10;99.90
1812;DHT22;904;47.814;11.134;2023-04-29T05:42:25;13.20;99.90
1812;DHT22;904;47.814;11.134;2023-04-29T05:44:53;13.30;99.90
1812;DHT22;904;47.814;11.134;2023-04-29T05:47:21;13.40;99.90
1812;DHT22;904;47.814;11.134;2023-04-29T05:49:48;13.40;99.90
1812;DHT22;904;47.814;11.134;2023-04-29T05:52:16;13.50;99.90
1812;DHT22;904;47.814;11.134;2023-04-29T05:54:43;13.50;99.90
1812;DHT22;904;47.814;11.134;2023-04-29T05:57:12;13.50;99.90
1812;DHT22;904;47.814;11.134;2023-04-29T05:59:39;13.50;99.90
1812;DHT22;904;47.814;11.134;2023-04-29T06:02:06;13.60;99.90
1812;DHT22;904;47.814;11.134;2023-04-29T06:04:35;13.60;99.90
1812;DHT22;904;47.814;11.134;2023-04-29T06:07:05;13.70;99.90
1812;DHT22;904;47.814;11.134;2023-04-29T06:09:33;13.70;99.90
1812;DHT22;904;47.814;11.134;2023-04-29T06:12:01;13.80;99.90
1812;DHT22;904;47.814;11.134;2023-04-29T06:14:30;13.80;99.90
1812;DHT22;904;47.814;11.134;2023-04-29T06:16:58;13.90;99.90
1812;DHT22;904;47.814;11.134;2023-04-29T06:19:25;14.00;99.90
1812;DHT22;904;47.814;11.134;2023-04-29T06:21:52;14.20;99.90
1812;DHT22;904;47.814;11.134;2023-04-29T06:24:20;14.40;99.90
1812;DHT22;904;47.814;11.134;2023-04-29T06:26:47;14.50;99.90
1812;DHT22;904;47.814;11.134;2023-04-29T06:29:15;14.60;99.90
1812;DHT22;904;47.814;11.134;2023-04-29T06:31:44;14.70;99.90
1812;DHT22;904;47.814;11.134;2023-04-29T06:34:11;14.80;99.90
1812;DHT22;904;47.814;11.134;2023-04-29T06:36:39;15.00;99.90
1812;DHT22;904;47.814;11.134;2023-04-29T06:39:06;15.10;99.90
1812;DHT22;904;47.814;11.134;2023-04-29T06:41:33;15.40;99.90
1812;DHT22;904;47.814;11.134;2023-04-29T06:44:01;15.60;99.90
1812;DHT22;904;47.814;11.134;2023-04-29T06:46:29;15.80;99.90
1812;DHT22;904;47.814;11.134;2023-04-29T06:48:57;16.10;99.90
1812;DHT22;904;47.814;11.134;2023-04-29T06:51:25;16.40;99.90
1812;DHT22;904;47.814;11.134;2023-04-29T06:53:52;16.80;99.90
1812;DHT22;904;47.814;11.134;2023-04-29T06:56:20;16.90;99.90
1812;DHT22;904;47.814;11.134;2023-04-29T06:58:48;17.00;99.90
1812;DHT22;904;47.814;11.134;2023-04-29T07:01:15;17.10;99.90
1812;DHT22;904;47.814;11.134;2023-04-29T07:03:43;17.10;99.90
1812;DHT22;904;47.814;11.134;2023-04-29T07:06:11;17.20;99.90
1812;DHT22;904;47.814;11.134;2023-04-29T07:08:39;17.20;99.90
1812;DHT22;904;47.814;11.134;2023-04-29T07:11:06;17.40;99.90
1812;DHT22;904;47.814;11.134;2023-04-29T07:13:33;17.60;99.60
1812;DHT22;904;47.814;11.134;2023-04-29T07:16:01;17.80;99.20
1812;DHT22;904;47.814;11.134;2023-04-29T07:18:28;18.00;98.40
1812;DHT22;904;47.814;11.134;2023-04-29T07:21:00;18.20;97.90
1812;DHT22;904;47.814;11.134;2023-04-29T07:23:28;18.30;97.40
1812;DHT22;904;47.814;11.134;2023-04-29T07:25:56;18.30;96.50
1812;DHT22;904;47.814;11.134;2023-04-29T07:28:23;18.20;95.50
1812;DHT22;904;47.814;11.134;2023-04-29T07:30:50;18.10;95.20
1812;DHT22;904;47.814;11.134;2023-04-29T07:33:17;18.00;95.20
1812;DHT22;904;47.814;11.134;2023-04-29T07:35:44;18.10;95.50
1812;DHT22;904;47.814;11.134;2023-04-29T07:38:11;18.20;95.40
1812;DHT22;904;47.814;11.134;2023-04-29T07:40:41;18.30;95.20
1812;DHT22;904;47.814;11.134;2023-04-29T07:43:07;18.30;94.90
1812;DHT22;904;47.814;11.134;2023-04-29T07:45:35;18.30;95.00
1812;DHT22;904;47.814;11.134;2023-04-29T07:48:02;18.40;93.60
1812;DHT22;904;47.814;11.134;2023-04-29T07:50:29;18.50;93.90
1812;DHT22;904;47.814;11.134;2023-04-29T07:52:56;18.80;93.30
1812;DHT22;904;47.814;11.134;2023-04-29T07:55:25;19.10;92.70
1812;DHT22;904;47.814;11.134;2023-04-29T07:57:53;19.30;92.80
1812;DHT22;904;47.814;11.134;2023-04-29T08:00:21;19.60;91.90
1812;DHT22;904;47.814;11.134;2023-04-29T08:02:50;19.70;90.90
1812;DHT22;904;47.814;11.134;2023-04-29T08:05:17;19.90;90.00
1812;DHT22;904;47.814;11.134;2023-04-29T08:07:45;20.00;90.00
1812;DHT22;904;47.814;11.134;2023-04-29T08:10:12;20.20;88.10
1812;DHT22;904;47.814;11.134;2023-04-29T08:12:39;20.40;87.10
1812;DHT22;904;47.814;11.134;2023-04-29T08:15:11;20.50;81.50
1812;DHT22;904;47.814;11.134;2023-04-29T08:17:38;20.80;79.20
1812;DHT22;904;47.814;11.134;2023-04-29T08:20:06;21.00;77.50
1812;DHT22;904;47.814;11.134;2023-04-29T08:22:34;21.20;78.90
1812;DHT22;904;47.814;11.134;2023-04-29T08:25:02;21.40;72.90
1812;DHT22;904;47.814;11.134;2023-04-29T08:27:30;21.50;70.10
1812;DHT22;904;47.814;11.134;2023-04-29T08:29:57;21.70;72.90
1812;DHT22;904;47.814;11.134;2023-04-29T08:32:26;22.00;75.10
1812;DHT22;904;47.814;11.134;2023-04-29T08:34:53;22.20;70.10
1812;DHT22;904;47.814;11.134;2023-04-29T08:37:20;22.20;66.10
1812;DHT22;904;47.814;11.134;2023-04-29T08:39:48;22.20;65.60
1812;DHT22;904;47.814;11.134;2023-04-29T08:42:16;22.30;66.00
1812;DHT22;904;47.814;11.134;2023-04-29T08:44:46;22.40;64.50
1812;DHT22;904;47.814;11.134;2023-04-29T08:47:15;22.40;61.90
1812;DHT22;904;47.814;11.134;2023-04-29T08:49:44;22.30;61.80
1812;DHT22;904;47.814;11.134;2023-04-29T08:52:11;22.20;62.20
1812;DHT22;904;47.814;11.134;2023-04-29T08:54:39;22.10;61.30
1812;DHT22;904;47.814;11.134;2023-04-29T08:57:06;22.20;62.00
1812;DHT22;904;47.814;11.134;2023-04-29T08:59:36;22.40;63.00
1812;DHT22;904;47.814;11.134;2023-04-29T09:02:05;22.60;62.00
1812;DHT22;904;47.814;11.134;2023-04-29T09:04:43;22.90;61.90
1812;DHT22;904;47.814;11.134;2023-04-29T09:07:15;23.00;58.90
1812;DHT22;904;47.814;11.134;2023-04-29T09:09:48;23.00;59.60
1812;DHT22;904;47.814;11.134;2023-04-29T09:12:19;23.30;62.10
1812;DHT22;904;47.814;11.134;2023-04-29T09:14:46;23.60;59.30
1812;DHT22;904;47.814;11.134;2023-04-29T09:17:13;24.00;57.20
1812;DHT22;904;47.814;11.134;2023-04-29T09:19:43;24.30;55.60
1812;DHT22;904;47.814;11.134;2023-04-29T09:22:10;24.50;54.90
1812;DHT22;904;47.814;11.134;2023-04-29T09:24:39;24.60;54.20
1812;DHT22;904;47.814;11.134;2023-04-29T09:27:08;24.50;54.20
1812;DHT22;904;47.814;11.134;2023-04-29T09:29:35;24.60;54.10
1812;DHT22;904;47.814;11.134;2023-04-29T09:32:18;24.90;54.50
1812;DHT22;904;47.814;11.134;2023-04-29T09:34:46;25.10;53.60
1812;DHT22;904;47.814;11.134;2023-04-29T09:37:23;25.00;48.70
1812;DHT22;904;47.814;11.134;2023-04-29T09:39:52;25.00;49.80
1812;DHT22;904;47.814;11.134;2023-04-29T09:42:19;25.10;50.70
1812;DHT22;904;47.814;11.134;2023-04-29T09:44:46;25.20;48.40
1812;DHT22;904;47.814;11.134;2023-04-29T09:47:13;25.00;47.50
1812;DHT22;904;47.814;11.134;2023-04-29T09:49:43;24.90;47.40
1812;DHT22;904;47.814;11.134;2023-04-29T09:52:12;24.80;48.40
1812;DHT22;904;47.814;11.134;2023-04-29T09:54:40;24.70;48.90
1812;DHT22;904;47.814;11.134;2023-04-29T09:57:11;24.50;49.70
1812;DHT22;904;47.814;11.134;2023-04-29T09:59:40;24.50;49.40
1812;DHT22;904;47.814;11.134;2023-04-29T10:02:12;24.60;48.80
1812;DHT22;904;47.814;11.134;2023-04-29T10:04:43;24.50;47.40
1812;DHT22;904;47.814;11.134;2023-04-29T10:07:14;24.50;47.30
1812;DHT22;904;47.814;11.134;2023-04-29T10:09:42;24.50;49.30
1812;DHT22;904;47.814;11.134;2023-04-29T10:12:15;24.50;53.00
1812;DHT22;904;47.814;11.134;2023-04-29T10:14:47;24.80;54.50
1812;DHT22;904;47.814;11.134;2023-04-29T10:17:17;25.00;53.80
1812;DHT22;904;47.814;11.134;2023-04-29T10:19:50;25.20;54.30
1812;DHT22;904;47.814;11.134;2023-04-29T10:22:28;25.40;51.70
1812;DHT22;904;47.814;11.134;2023-04-29T10:24:56;25.50;52.00
1812;DHT22;904;47.814;11.134;2023-04-29T10:27:28;25.40;47.90
1812;DHT22;904;47.814;11.134;2023-04-29T10:29:58;25.50;48.00
1812;DHT22;904;47.814;11.134;2023-04-29T10:32:28;25.50;48.80
1812;DHT22;904;47.814;11.134;2023-04-29T10:34:56;25.50;45.90
1812;DHT22;904;47.814;11.134;2023-04-29T10:37:24;25.50;46.10
1812;DHT22;904;47.814;11.134;2023-04-29T10:39:57;25.60;46.90
1812;DHT22;904;47.814;11.134;2023-04-29T10:42:35;25.60;47.20
1812;DHT22;904;47.814;11.134;2023-04-29T10:45:26;25.60;45.20
1812;DHT22;904;47.814;11.134;2023-04-29T10:48:12;25.70;43.40
1812;DHT22;904;47.814;11.134;2023-04-29T10:51:00;26.00;44.30
1812;DHT22;904;47.814;11.134;2023-04-29T10:53:28;26.10;42.70
1812;DHT22;904;47.814;11.134;2023-04-29T10:55:58;26.20;42.00
1812;DHT22;904;47.814;11.134;2023-04-29T10:58:38;26.30;42.10
1812;DHT22;904;47.814;11.134;2023-04-29T11:01:07;26.40;40.70
1812;DHT22;904;47.814;11.134;2023-04-29T11:03:52;26.30;39.10
1812;DHT22;904;47.814;11.134;2023-04-29T11:06:39;26.30;39.30
1812;DHT22;904;47.814;11.134;2023-04-29T11:09:14;26.30;39.10
1812;DHT22;904;47.814;11.134;2023-04-29T11:11:54;26.40;39.40
1812;DHT22;904;47.814;11.134;2023-04-29T11:14:25;26.40;41.90
1812;DHT22;904;47.814;11.134;2023-04-29T11:16:55;26.30;42.10
1812;DHT22;904;47.814;11.134;2023-04-29T11:19:25;26.20;42.60
1812;DHT22;904;47.814;11.134;2023-04-29T11:22:13;26.10;42.20
1812;DHT22;904;47.814;11.134;2023-04-29T11:24:50;26.20;44.10
1812;DHT22;904;47.814;11.134;2023-04-29T11:27:18;26.40;43.60
1812;DHT22;904;47.814;11.134;2023-04-29T11:29:48;26.30;43.10
1812;DHT22;904;47.814;11.134;2023-04-29T11:32:15;26.30;41.40
1812;DHT22;904;47.814;11.134;2023-04-29T11:34:46;26.20;39.80
1812;DHT22;904;47.814;11.134;2023-04-29T11:37:20;26.00;42.20
1812;DHT22;904;47.814;11.134;2023-04-29T11:39:48;26.10;44.00
1812;DHT22;904;47.814;11.134;2023-04-29T11:42:19;26.20;42.20
1812;DHT22;904;47.814;11.134;2023-04-29T11:44:50;26.20;42.10
1812;DHT22;904;47.814;11.134;2023-04-29T11:47:18;26.10;41.50
1812;DHT22;904;47.814;11.134;2023-04-29T11:49:46;26.10;41.00
1812;DHT22;904;47.814;11.134;2023-04-29T11:52:13;25.90;40.50
1812;DHT22;904;47.814;11.134;2023-04-29T11:54:41;25.30;40.90
1812;DHT22;904;47.814;11.134;2023-04-29T11:57:10;24.70;41.80
1812;DHT22;904;47.814;11.134;2023-04-29T11:59:37;24.00;42.70
1812;DHT22;904;47.814;11.134;2023-04-29T12:02:10;23.50;45.10
1812;DHT22;904;47.814;11.134;2023-04-29T12:04:44;22.90;45.30
1812;DHT22;904;47.814;11.134;2023-04-29T12:07:13;22.40;47.20
1812;DHT22;904;47.814;11.134;2023-04-29T12:09:42;21.90;49.20
1812;DHT22;904;47.814;11.134;2023-04-29T12:12:10;21.50;51.10
1812;DHT22;904;47.814;11.134;2023-04-29T12:14:37;21.20;53.50
1812;DHT22;904;47.814;11.134;2023-04-29T12:17:08;20.90;55.50
1812;DHT22;904;47.814;11.134;2023-04-29T12:19:37;20.60;57.30
1812;DHT22;904;47.814;11.134;2023-04-29T12:22:05;20.40;59.10
1812;DHT22;904;47.814;11.134;2023-04-29T12:24:34;20.20;60.90
1812;DHT22;904;47.814;11.134;2023-04-29T12:27:01;20.00;62.80
1812;DHT22;904;47.814;11.134;2023-04-29T12:29:30;19.90;64.80
1812;DHT22;904;47.814;11.134;2023-04-29T12:31:58;19.80;66.60
1812;DHT22;904;47.814;11.134;2023-04-29T12:34:27;19.70;67.60
1812;DHT22;904;47.814;11.134;2023-04-29T12:36:55;19.70;68.90
1812;DHT22;904;47.814;11.134;2023-04-29T12:39:24;19.60;71.10
1812;DHT22;904;47.814;11.134;2023-04-29T12:41:54;19.70;71.80
1812;DHT22;904;47.814;11.134;2023-04-29T12:44:22;19.80;71.90
1812;DHT22;904;47.814;11.134;2023-04-29T12:46:50;19.90;72.50
1812;DHT22;904;47.814;11.134;2023-04-29T12:49:18;20.00;71.80
1812;DHT22;904;47.814;11.134;2023-04-29T12:51:47;20.20;71.80
1812;DHT22;904;47.814;11.134;2023-04-29T12:54:15;20.40;71.30
1812;DHT22;904;47.814;11.134;2023-04-29T12:56:42;20.70;71.40
1812;DHT22;904;47.814;11.134;2023-04-29T12:59:10;21.00;70.10
1812;DHT22;904;47.814;11.134;2023-04-29T13:01:37;21.40;68.80
1812;DHT22;904;47.814;11.134;2023-04-29T13:04:05;21.90;67.10
1812;DHT22;904;47.814;11.134;2023-04-29T13:06:33;22.30;65.10
1812;DHT22;904;47.814;11.134;2023-04-29T13:09:05;22.80;63.90
1812;DHT22;904;47.814;11.134;2023-04-29T13:11:36;23.20;59.90
1812;DHT22;904;47.814;11.134;2023-04-29T13:14:03;23.30;58.70
1812;DHT22;904;47.814;11.134;2023-04-29T13:16:31;23.40;58.10
1812;DHT22;904;47.814;11.134;2023-04-29T13:18:59;23.40;58.50
1812;DHT22;904;47.814;11.134;2023-04-29T13:21:26;23.40;59.10
1812;DHT22;904;47.814;11.134;2023-04-29T13:23:54;23.40;59.50
1812;DHT22;904;47.814;11.134;2023-04-29T13:26:22;23.30;58.90
1812;DHT22;904;47.814;11.134;2023-04-29T13:28:50;23.30;58.90
1812;DHT22;904;47.814;11.134;2023-04-29T13:31:17;23.20;59.40
1812;DHT22;904;47.814;11.134;2023-04-29T13:33:44;23.20;58.40
1812;DHT22;904;47.814;11.134;2023-04-29T13:36:12;23.10;56.60
1812;DHT22;904;47.814;11.134;2023-04-29T13:38:39;23.10;56.10
1812;DHT22;904;47.814;11.134;2023-04-29T13:41:07;23.00;56.00
1812;DHT22;904;47.814;11.134;2023-04-29T13:43:35;23.00;55.50
1812;DHT22;904;47.814;11.134;2023-04-29T13:46:03;23.00;54.90
1812;DHT22;904;47.814;11.134;2023-04-29T13:48:30;23.00;54.80
1812;DHT22;904;47.814;11.134;2023-04-29T13:50:57;23.00;55.10
1812;DHT22;904;47.814;11.134;2023-04-29T13:53:24;23.00;54.20
1812;DHT22;904;47.814;11.134;2023-04-29T13:55:51;23.00;51.30
1812;DHT22;904;47.814;11.134;2023-04-29T13:58:19;23.10;52.10
1812;DHT22;904;47.814;11.134;2023-04-29T14:00:47;23.20;50.50
1812;DHT22;904;47.814;11.134;2023-04-29T14:03:17;23.30;50.60
1812;DHT22;904;47.814;11.134;2023-04-29T14:05:44;23.40;50.10
1812;DHT22;904;47.814;11.134;2023-04-29T14:08:13;23.40;50.00
1812;DHT22;904;47.814;11.134;2023-04-29T14:10:40;23.40;50.60
1812;DHT22;904;47.814;11.134;2023-04-29T14:13:08;23.30;49.50
1812;DHT22;904;47.814;11.134;2023-04-29T14:15:36;23.30;50.00
1812;DHT22;904;47.814;11.134;2023-04-29T14:18:04;23.20;48.60
1812;DHT22;904;47.814;11.134;2023-04-29T14:20:34;23.10;49.10
1812;DHT22;904;47.814;11.134;2023-04-29T14:23:01;22.90;48.30
1812;DHT22;904;47.814;11.134;2023-04-29T14:25:28;22.60;48.90
1812;DHT22;904;47.814;11.134;2023-04-29T14:27:55;22.30;49.80
1812;DHT22;904;47.814;11.134;2023-04-29T14:30:23;22.10;51.00
1812;DHT22;904;47.814;11.134;2023-04-29T14:32:50;22.00;51.90
1812;DHT22;904;47.814;11.134;2023-04-29T14:35:19;22.00;51.40
1812;DHT22;904;47.814;11.134;2023-04-29T14:37:48;22.10;52.00
1812;DHT22;904;47.814;11.134;2023-04-29T14:40:15;22.00;51.70
1812;DHT22;904;47.814;11.134;2023-04-29T14:42:42;21.90;51.50
1812;DHT22;904;47.814;11.134;2023-04-29T14:45:10;21.80;51.60
1812;DHT22;904;47.814;11.134;2023-04-29T14:47:39;21.80;52.00
1812;DHT22;904;47.814;11.134;2023-04-29T14:50:11;21.70;51.80
1812;DHT22;904;47.814;11.134;2023-04-29T14:52:40;21.60;52.90
1812;DHT22;904;47.814;11.134;2023-04-29T14:55:07;21.40;53.00
1812;DHT22;904;47.814;11.134;2023-04-29T14:57:34;21.30;52.20
1812;DHT22;904;47.814;11.134;2023-04-29T15:00:02;21.10;52.00
1812;DHT22;904;47.814;11.134;2023-04-29T15:02:30;21.00;51.60
1812;DHT22;904;47.814;11.134;2023-04-29T15:04:57;20.80;51.80
1812;DHT22;904;47.814;11.134;2023-04-29T15:07:24;20.60;51.60
1812;DHT22;904;47.814;11.134;2023-04-29T15:09:53;20.50;52.70
1812;DHT22;904;47.814;11.134;2023-04-29T15:12:21;20.40;54.10
1812;DHT22;904;47.814;11.134;2023-04-29T15:14:51;20.30;54.50
1812;DHT22;904;47.814;11.134;2023-04-29T15:17:18;20.20;54.60
1812;DHT22;904;47.814;11.134;2023-04-29T15:19:46;20.20;55.00
1812;DHT22;904;47.814;11.134;2023-04-29T15:22:15;20.20;55.90
1812;DHT22;904;47.814;11.134;2023-04-29T15:24:44;20.20;55.20
1812;DHT22;904;47.814;11.134;2023-04-29T15:27:13;20.30;56.10
1812;DHT22;904;47.814;11.134;2023-04-29T15:29:43;20.30;57.70
1812;DHT22;904;47.814;11.134;2023-04-29T15:32:10;20.30;56.20
1812;DHT22;904;47.814;11.134;2023-04-29T15:34:37;20.40;55.50
1812;DHT22;904;47.814;11.134;2023-04-29T15:37:04;20.40;56.10
1812;DHT22;904;47.814;11.134;2023-04-29T15:39:31;20.30;55.20
1812;DHT22;904;47.814;11.134;2023-04-29T15:41:59;20.20;54.40
1812;DHT22;904;47.814;11.134;2023-04-29T15:44:28;20.20;53.90
1812;DHT22;904;47.814;11.134;2023-04-29T15:46:55;20.20;54.40
1812;DHT22;904;47.814;11.134;2023-04-29T15:49:23;20.10;54.40
1812;DHT22;904;47.814;11.134;2023-04-29T15:51:52;20.10;55.00
1812;DHT22;904;47.814;11.134;2023-04-29T15:54:20;20.00;54.60
1812;DHT22;904;47.814;11.134;2023-04-29T15:56:48;19.90;54.60
1812;DHT22;904;47.814;11.134;2023-04-29T15:59:16;19.80;55.30
1812;DHT22;904;47.814;11.134;2023-04-29T16:01:45;19.80;55.60
1812;DHT22;904;47.814;11.134;2023-04-29T16:04:15;19.70;55.50
1812;DHT22;904;47.814;11.134;2023-04-29T16:06:42;19.60;54.60
1812;DHT22;904;47.814;11.134;2023-04-29T16:09:15;19.60;54.90
1812;DHT22;904;47.814;11.134;2023-04-29T16:11:42;19.50;54.90
1812;DHT22;904;47.814;11.134;2023-04-29T16:14:09;19.40;53.80